Time;durP1;ratioP1;P1;durP2;ratioP2;P2;SDS_P1;SDS_P2;PMS_P1;PMS_P2;Temp;Humidity;BMP_temperature;BMP_pressure;BME280_temperature;BME280_humidity;BME280_pressure;Samples;Min_cycle;Max_cycle;Signal;HPM_P1;HPM_P2
2023/01/20 00:01:37;;;;;;;18.43;15.40;;;2.70;1.00;;;;;;6258660;28;20253;-56
2023/01/20 00:04:40;;;;;;;21.20;14.73;;;2.70;1.00;;;;;;6292760;28;20241;-55
2023/01/20 00:07:43;;;;;;;20.83;15.60;;;2.60;1.00;;;;;;6278560;28;20237;-56
2023/01/20 00:10:46;;;;;;;17.97;15.50;;;2.60;1.00;;;;;;6281634;28;20612;-56
2023/01/20 00:13:53;;;;;;;23.07;16.97;;;2.80;1.00;;;;;;6283636;28;20312;-55
2023/01/20 00:16:58;;;;;;;25.40;15.63;;;2.80;1.00;;;;;;6281783;28;20740;-55
2023/01/20 00:20:02;;;;;;;18.40;14.70;;;2.80;1.00;;;;;;6283588;28;20237;-55
2023/01/20 00:23:05;;;;;;;17.90;15.57;;;2.70;1.00;;;;;;6282703;28;20256;-55
2023/01/20 00:26:10;;;;;;;17.30;15.00;;;2.60;1.00;;;;;;6259117;28;20225;-56
2023/01/20 00:29:13;;;;;;;20.13;15.43;;;2.80;1.00;;;;;;6261865;28;20245;-55
2023/01/20 00:32:18;;;;;;;21.57;14.77;;;2.60;1.00;;;;;;6270999;28;20425;-56
2023/01/20 00:35:21;;;;;;;22.47;15.03;;;2.70;1.00;;;;;;6287418;28;20310;-55
2023/01/20 00:38:24;;;;;;;20.50;15.07;;;2.50;1.00;;;;;;6286486;28;20244;-56
2023/01/20 00:41:27;;;;;;;18.63;14.83;;;2.70;1.00;;;;;;6281787;28;20248;-55
2023/01/20 00:44:30;;;;;;;23.93;14.80;;;2.70;1.00;;;;;;6286982;28;20240;-55
2023/01/20 00:47:34;;;;;;;20.67;15.10;;;2.80;1.00;;;;;;6274763;28;20237;-55
2023/01/20 00:50:37;;;;;;;19.17;14.00;;;2.70;1.00;;;;;;6261365;28;20250;-57
2023/01/20 00:53:41;;;;;;;18.63;14.43;;;2.70;1.00;;;;;;6261208;28;20714;-56
2023/01/20 00:56:43;;;;;;;19.67;14.13;;;2.60;1.00;;;;;;6275076;28;20343;-56
2023/01/20 00:59:46;;;;;;;18.47;14.83;;;2.70;1.00;;;;;;6261983;28;20261;-56
2023/01/20 01:02:51;;;;;;;20.27;14.83;;;2.60;1.00;;;;;;6284542;28;20240;-57
2023/01/20 01:06:06;;;;;;;21.37;15.40;;;2.60;1.00;;;;;;6276209;28;20233;-56
2023/01/20 01:09:09;;;;;;;23.80;14.80;;;2.70;1.00;;;;;;6284803;28;20725;-57
2023/01/20 01:12:13;;;;;;;19.63;14.20;;;2.50;1.00;;;;;;6264855;28;20238;-56
2023/01/20 01:15:16;;;;;;;22.53;14.73;;;2.70;1.00;;;;;;6261657;28;20238;-56
2023/01/20 01:18:20;;;;;;;23.43;13.83;;;2.50;1.00;;;;;;6261663;28;20242;-56
2023/01/20 01:21:23;;;;;;;19.13;13.23;;;2.50;1.00;;;;;;6276082;28;20395;-55
2023/01/20 01:24:26;;;;;;;18.83;14.03;;;2.30;1.00;;;;;;6286452;28;20237;-55
2023/01/20 01:27:29;;;;;;;23.13;13.73;;;2.30;1.00;;;;;;6286651;28;20343;-56
2023/01/20 01:30:33;;;;;;;18.00;13.57;;;2.60;1.00;;;;;;6269503;28;20253;-56
2023/01/20 01:33:37;;;;;;;19.70;13.23;;;2.30;1.00;;;;;;6281036;28;20366;-56
2023/01/20 01:36:40;;;;;;;24.70;15.43;;;2.50;1.00;;;;;;6284117;28;20298;-54
2023/01/20 01:39:43;;;;;;;18.63;14.07;;;2.30;1.00;;;;;;6276330;28;20236;-56
2023/01/20 01:42:46;;;;;;;20.67;14.10;;;2.60;1.00;;;;;;6286673;28;20240;-57
2023/01/20 01:45:50;;;;;;;20.40;14.03;;;2.50;1.00;;;;;;6287069;28;20245;-56
2023/01/20 01:48:55;;;;;;;18.67;14.33;;;2.30;1.00;;;;;;6264690;28;20415;-55
2023/01/20 01:52:01;;;;;;;21.73;14.80;;;2.50;1.00;;;;;;6261316;28;20245;-56
2023/01/20 01:55:05;;;;;;;20.20;14.27;;;2.60;1.00;;;;;;6260393;28;20232;-55
2023/01/20 01:58:11;;;;;;;16.60;13.37;;;2.10;1.00;;;;;;6261190;28;20230;-55
2023/01/20 02:01:14;;;;;;;16.83;13.57;;;2.00;1.00;;;;;;6260975;28;20243;-56
2023/01/20 02:04:22;;;;;;;18.90;13.40;;;1.90;1.00;;;;;;6285850;28;20233;-56
2023/01/20 02:07:25;;;;;;;16.47;13.53;;;2.10;1.00;;;;;;6278329;28;20298;-55
2023/01/20 02:10:28;;;;;;;14.90;12.93;;;1.80;1.00;;;;;;6284592;28;20233;-55
2023/01/20 02:13:33;;;;;;;22.73;13.47;;;2.10;1.00;;;;;;6284765;28;20229;-57
2023/01/20 02:16:46;;;;;;;16.93;12.53;;;1.80;1.00;;;;;;6263451;28;20248;-55
2023/01/20 02:20:14;;;;;;;18.87;13.67;;;2.10;1.00;;;;;;6259721;28;20238;-55
2023/01/20 02:23:35;;;;;;;15.77;13.33;;;1.80;1.00;;;;;;6259792;28;20264;-55
2023/01/20 02:27:02;;;;;;;20.50;14.50;;;2.10;1.00;;;;;;6259970;28;20238;-56
2023/01/20 02:30:32;;;;;;;23.03;14.83;;;1.80;1.00;;;;;;6260333;28;20241;-56
2023/01/20 02:33:40;;;;;;;18.97;14.17;;;1.80;1.00;;;;;;6288354;28;20267;-55
2023/01/20 02:36:47;;;;;;;21.93;14.53;;;2.00;1.00;;;;;;6284862;28;20491;-55
2023/01/20 02:40:00;;;;;;;18.10;15.07;;;2.00;1.00;;;;;;6272629;28;20241;-56
2023/01/20 02:43:10;;;;;;;16.57;14.07;;;2.00;1.00;;;;;;6283978;28;20718;-56
2023/01/20 02:46:20;;;;;;;20.77;14.90;;;2.10;1.00;;;;;;6277932;28;20226;-55
2023/01/20 02:49:30;;;;;;;19.07;14.97;;;2.00;1.00;;;;;;6259012;28;20278;-56
2023/01/20 02:52:38;;;;;;;21.73;15.70;;;2.20;1.00;;;;;;6259641;28;20246;-56
2023/01/20 02:55:44;;;;;;;19.57;15.07;;;2.20;1.00;;;;;;6259815;28;20857;-55
2023/01/20 02:58:50;;;;;;;22.27;14.90;;;2.30;1.00;;;;;;6254459;28;20253;-55
2023/01/20 03:02:01;;;;;;;20.90;15.00;;;2.00;1.00;;;;;;6261994;28;20842;-55
2023/01/20 03:05:09;;;;;;;23.63;15.77;;;2.20;1.00;;;;;;6284227;28;20226;-55
2023/01/20 03:08:14;;;;;;;23.13;14.80;;;2.20;1.00;;;;;;6274253;28;20245;-56
2023/01/20 03:11:18;;;;;;;23.00;15.30;;;2.20;1.00;;;;;;6283294;28;20718;-56
2023/01/20 03:14:21;;;;;;;23.97;14.77;;;2.10;1.00;;;;;;6277482;28;20230;-56
2023/01/20 03:17:24;;;;;;;21.07;15.10;;;1.90;1.00;;;;;;6259541;28;20230;-56
2023/01/20 03:20:28;;;;;;;17.47;15.00;;;2.00;1.00;;;;;;6258764;28;20238;-55
2023/01/20 03:23:35;;;;;;;22.63;15.13;;;2.20;1.00;;;;;;6258606;28;20276;-56
2023/01/20 03:26:38;;;;;;;19.47;14.83;;;2.20;1.00;;;;;;6258257;28;20662;-56
2023/01/20 03:29:42;;;;;;;22.97;13.67;;;2.20;1.00;;;;;;6254866;28;20649;-56
2023/01/20 03:32:47;;;;;;;21.33;13.90;;;2.20;1.00;;;;;;6271299;28;20586;-58
2023/01/20 03:35:52;;;;;;;21.20;14.93;;;1.70;1.00;;;;;;6282823;28;20240;-56
2023/01/20 03:38:56;;;;;;;22.30;15.23;;;1.80;1.00;;;;;;6279700;28;20745;-56
2023/01/20 03:42:07;;;;;;;21.00;15.03;;;2.20;1.00;;;;;;6283759;28;20264;-56
2023/01/20 03:45:16;;;;;;;22.90;15.93;;;2.30;1.00;;;;;;6278240;28;20234;-55
2023/01/20 03:48:28;;;;;;;22.03;15.50;;;2.00;1.00;;;;;;6257829;28;20260;-55
2023/01/20 03:51:40;;;;;;;20.57;16.60;;;2.30;1.00;;;;;;6258651;28;20319;-55
2023/01/20 03:54:49;;;;;;;23.20;15.87;;;2.10;1.00;;;;;;6257625;28;20384;-55
2023/01/20 03:57:57;;;;;;;24.90;16.57;;;1.70;1.00;;;;;;6258443;28;20276;-55
2023/01/20 04:01:03;;;;;;;21.50;16.60;;;2.10;1.00;;;;;;6254582;28;20714;-55
2023/01/20 04:04:21;;;;;;;25.13;16.13;;;2.10;1.00;;;;;;6289694;28;23050;-56
2023/01/20 04:07:26;;;;;;;24.97;15.23;;;1.90;1.00;;;;;;6284193;28;20259;-56
2023/01/20 04:10:32;;;;;;;25.73;17.60;;;2.10;1.00;;;;;;6286500;28;20245;-55
2023/01/20 04:13:35;;;;;;;28.90;18.07;;;2.00;1.00;;;;;;6288271;28;20233;-55
2023/01/20 04:16:38;;;;;;;21.27;15.67;;;1.90;1.00;;;;;;6288038;28;20235;-56
2023/01/20 04:19:41;;;;;;;22.43;17.17;;;2.10;1.00;;;;;;6270914;28;20241;-55
2023/01/20 04:22:51;;;;;;;24.67;17.23;;;1.80;1.00;;;;;;6262001;28;20237;-56
2023/01/20 04:25:54;;;;;;;23.97;18.03;;;1.70;1.00;;;;;;6262315;28;20611;-55
2023/01/20 04:28:57;;;;;;;25.33;17.33;;;1.70;1.00;;;;;;6279000;28;20860;-55
2023/01/20 04:32:01;;;;;;;27.73;19.07;;;1.70;1.00;;;;;;6270820;28;20924;-54
2023/01/20 04:35:04;;;;;;;28.63;17.47;;;1.80;1.00;;;;;;6286877;28;20233;-56
2023/01/20 04:38:09;;;;;;;30.80;19.80;;;1.70;1.00;;;;;;6287230;28;20229;-55
2023/01/20 04:41:12;;;;;;;27.10;18.20;;;1.80;1.00;;;;;;6282750;28;20636;-55
2023/01/20 04:44:15;;;;;;;26.67;18.50;;;1.90;1.00;;;;;;6284044;28;20233;-56
2023/01/20 04:47:18;;;;;;;28.97;18.97;;;2.00;1.00;;;;;;6285964;28;20233;-55
2023/01/20 04:50:22;;;;;;;25.33;18.40;;;1.80;1.00;;;;;;6281659;28;20740;-55
2023/01/20 04:53:26;;;;;;;31.17;20.97;;;1.80;1.00;;;;;;6285076;28;20718;-59
2023/01/20 04:56:29;;;;;;;29.53;20.00;;;1.70;1.00;;;;;;6286941;28;20309;-54
2023/01/20 04:59:32;;;;;;;30.53;20.33;;;1.80;1.00;;;;;;6285689;28;20244;-56
2023/01/20 05:02:35;;;;;;;33.93;19.90;;;1.70;1.00;;;;;;6287427;28;20244;-55
2023/01/20 05:05:38;;;;;;;35.90;20.13;;;1.70;1.00;;;;;;6276893;28;20232;-55
2023/01/20 05:08:43;;;;;;;30.33;20.47;;;1.70;1.00;;;;;;6280878;28;20241;-56
2023/01/20 05:11:46;;;;;;;34.57;20.70;;;1.60;1.00;;;;;;6281021;28;20483;-55
2023/01/20 05:14:49;;;;;;;31.70;20.57;;;1.90;1.00;;;;;;6284461;28;20237;-55
2023/01/20 05:17:52;;;;;;;37.20;21.00;;;1.60;1.00;;;;;;6285101;28;20476;-57
2023/01/20 05:20:55;;;;;;;31.63;19.87;;;1.90;1.00;;;;;;6283669;28;20240;-56
2023/01/20 05:24:00;;;;;;;36.37;22.10;;;1.60;1.00;;;;;;6281980;28;20626;-57
2023/01/20 05:27:03;;;;;;;32.57;21.57;;;1.90;1.00;;;;;;6285361;28;20662;-56
2023/01/20 05:30:07;;;;;;;37.90;23.00;;;1.90;1.00;;;;;;6287216;28;20706;-55
2023/01/20 05:33:10;;;;;;;34.70;23.00;;;1.80;1.00;;;;;;6283504;28;20249;-55
2023/01/20 05:36:13;;;;;;;35.20;22.97;;;1.60;1.00;;;;;;6282831;28;20612;-56
2023/01/20 05:39:18;;;;;;;35.10;23.87;;;1.60;1.00;;;;;;6282831;28;20760;-59
2023/01/20 05:42:21;;;;;;;33.37;21.57;;;1.50;1.00;;;;;;6285320;28;20235;-55
2023/01/20 05:45:24;;;;;;;36.37;22.77;;;1.80;1.00;;;;;;6285858;28;20980;-54
2023/01/20 05:48:28;;;;;;;32.33;21.93;;;1.50;1.00;;;;;;6282550;28;20241;-55
2023/01/20 05:51:31;;;;;;;36.50;24.17;;;1.70;1.00;;;;;;6285577;28;20487;-55
2023/01/20 05:54:35;;;;;;;36.90;23.23;;;1.70;1.00;;;;;;6286327;28;20233;-55
2023/01/20 05:57:38;;;;;;;31.30;22.60;;;1.70;1.00;;;;;;6275632;28;20619;-55
2023/01/20 06:00:41;;;;;;;36.87;22.47;;;1.70;1.00;;;;;;6284149;28;20241;-57
2023/01/20 06:03:44;;;;;;;34.50;22.67;;;1.70;1.00;;;;;;6291987;28;20243;-55
2023/01/20 06:06:48;;;;;;;33.70;23.00;;;1.50;1.00;;;;;;6269617;28;20238;-54
2023/01/20 06:09:52;;;;;;;36.43;24.27;;;1.80;1.00;;;;;;6283787;28;20260;-55
2023/01/20 06:12:56;;;;;;;34.43;22.57;;;1.50;1.00;;;;;;6284413;28;20234;-55
2023/01/20 06:15:59;;;;;;;45.87;25.40;;;1.60;1.00;;;;;;6282234;28;20250;-57
2023/01/20 06:19:02;;;;;;;41.50;24.00;;;1.50;1.00;;;;;;6286340;28;20292;-56
2023/01/20 06:22:08;;;;;;;38.43;24.53;;;1.60;1.00;;;;;;6275069;28;20237;-56
2023/01/20 06:25:12;;;;;;;36.13;23.57;;;1.30;1.00;;;;;;6285020;28;20367;-55
2023/01/20 06:28:16;;;;;;;34.27;23.37;;;1.50;1.00;;;;;;6277062;28;20328;-56
2023/01/20 06:31:19;;;;;;;31.87;23.23;;;1.10;1.00;;;;;;6283835;28;20243;-55
2023/01/20 06:34:22;;;;;;;36.90;23.30;;;1.40;1.00;;;;;;6287094;28;20229;-55
2023/01/20 06:37:25;;;;;;;37.77;23.40;;;1.20;1.00;;;;;;6275926;28;20434;-56
2023/01/20 06:40:29;;;;;;;38.53;22.47;;;1.10;1.00;;;;;;6272766;28;20243;-56
2023/01/20 06:43:34;;;;;;;39.23;23.57;;;1.30;1.00;;;;;;6282898;28;20637;-54
2023/01/20 06:46:37;;;;;;;30.33;22.53;;;1.20;1.00;;;;;;6280575;28;20247;-56
2023/01/20 06:49:40;;;;;;;36.63;23.10;;;1.50;1.00;;;;;;6282491;28;20734;-54
2023/01/20 06:52:43;;;;;;;31.90;21.90;;;1.20;1.00;;;;;;6283414;28;20437;-55
2023/01/20 06:55:55;;;;;;;36.10;21.80;;;1.10;1.00;;;;;;6281043;28;20396;-56
2023/01/20 06:58:59;;;;;;;35.87;23.73;;;1.30;1.00;;;;;;6275916;28;20597;-55
2023/01/20 07:02:02;;;;;;;38.17;22.83;;;1.30;1.00;;;;;;6283851;28;20596;-55
2023/01/20 07:05:06;;;;;;;37.40;23.07;;;1.30;1.00;;;;;;6284375;28;20304;-55
2023/01/20 07:08:10;;;;;;;38.03;24.47;;;1.00;1.00;;;;;;6278863;28;20233;-56
2023/01/20 07:11:14;;;;;;;39.43;24.03;;;1.10;1.00;;;;;;6281704;28;20725;-56
2023/01/20 07:14:17;;;;;;;33.07;22.90;;;0.90;1.00;;;;;;6279692;28;20276;-55
2023/01/20 07:17:20;;;;;;;38.40;23.73;;;1.00;1.00;;;;;;6275416;28;20236;-57
2023/01/20 07:20:23;;;;;;;33.20;22.80;;;1.30;1.00;;;;;;6278875;28;20235;-56
2023/01/20 07:23:30;;;;;;;32.47;21.83;;;1.10;1.00;;;;;;6289838;28;20651;-56
2023/01/20 07:26:35;;;;;;;35.60;23.40;;;1.00;1.00;;;;;;6277015;28;20591;-55
2023/01/20 07:29:39;;;;;;;36.53;22.90;;;0.90;1.00;;;;;;6280788;28;20229;-55
2023/01/20 07:32:42;;;;;;;33.93;22.63;;;0.90;1.00;;;;;;6276619;28;20233;-54
2023/01/20 07:35:45;;;;;;;34.87;22.53;;;1.20;1.00;;;;;;6280480;28;20577;-54
2023/01/20 07:38:49;;;;;;;36.47;23.80;;;1.00;1.00;;;;;;6282256;28;20680;-56
2023/01/20 07:41:54;;;;;;;38.63;23.17;;;1.00;1.00;;;;;;6275541;28;20411;-55
2023/01/20 07:44:57;;;;;;;39.07;23.60;;;1.30;1.00;;;;;;6294184;28;20229;-55
2023/01/20 07:48:02;;;;;;;36.00;22.27;;;1.00;1.00;;;;;;6281657;28;20233;-55
2023/01/20 07:51:06;;;;;;;34.77;20.63;;;1.30;1.00;;;;;;6282662;28;20606;-56
2023/01/20 07:54:11;;;;;;;31.83;21.53;;;1.10;1.00;;;;;;6288384;28;20229;-55
2023/01/20 07:57:15;;;;;;;34.93;21.40;;;1.10;1.00;;;;;;6287464;28;20236;-55
2023/01/20 08:00:19;;;;;;;34.17;21.50;;;1.10;1.00;;;;;;6276448;28;20613;-55
2023/01/20 08:03:22;;;;;;;32.20;21.30;;;1.00;1.00;;;;;;6276171;28;20240;-54
2023/01/20 08:06:30;;;;;;;39.60;22.57;;;1.00;1.00;;;;;;6281149;28;20229;-56
2023/01/20 08:09:33;;;;;;;34.03;22.07;;;1.20;1.00;;;;;;6283527;28;20627;-55
2023/01/20 08:12:37;;;;;;;32.97;22.47;;;1.10;1.00;;;;;;6283576;28;20812;-55
2023/01/20 08:15:40;;;;;;;29.63;21.07;;;1.20;1.00;;;;;;6281116;28;20237;-56
2023/01/20 08:18:44;;;;;;;32.37;22.63;;;1.10;1.00;;;;;;6287331;28;20247;-56
2023/01/20 08:21:47;;;;;;;37.57;23.03;;;1.20;1.00;;;;;;6276944;28;20229;-56
2023/01/20 08:24:50;;;;;;;37.87;22.83;;;1.20;1.00;;;;;;6280532;28;20240;-55
2023/01/20 08:27:54;;;;;;;32.97;20.90;;;1.10;1.00;;;;;;6285258;28;20528;-55
2023/01/20 08:31:04;;;;;;;33.00;21.97;;;1.20;1.00;;;;;;6286671;28;20403;-56
2023/01/20 08:34:08;;;;;;;36.33;21.60;;;1.20;1.00;;;;;;6283509;28;20257;-55
2023/01/20 08:37:11;;;;;;;28.77;20.90;;;1.20;1.00;;;;;;6270871;28;20641;-56
2023/01/20 08:40:15;;;;;;;35.27;20.63;;;1.40;1.00;;;;;;6286842;28;20237;-54
2023/01/20 08:43:20;;;;;;;38.87;22.57;;;1.30;1.00;;;;;;6281683;28;20234;-56
2023/01/20 08:46:23;;;;;;;39.53;22.47;;;1.20;1.00;;;;;;6278754;28;20244;-55
2023/01/20 08:49:28;;;;;;;36.03;20.93;;;1.10;1.00;;;;;;6291226;28;20294;-55
2023/01/20 08:52:31;;;;;;;35.83;21.83;;;1.30;1.00;;;;;;6287071;28;20230;-55
2023/01/20 08:55:34;;;;;;;38.60;23.77;;;1.10;1.00;;;;;;6280183;28;20765;-55
2023/01/20 08:58:39;;;;;;;41.37;24.20;;;1.10;1.00;;;;;;6280756;28;20233;-56
2023/01/20 09:01:43;;;;;;;46.07;24.63;;;1.50;1.00;;;;;;6288317;28;20714;-55
2023/01/20 09:04:48;;;;;;;39.07;24.27;;;1.20;1.00;;;;;;6283956;28;20646;-55
2023/01/20 09:07:51;;;;;;;36.43;23.60;;;1.30;1.00;;;;;;6276574;28;20352;-56
2023/01/20 09:10:56;;;;;;;38.43;23.13;;;1.70;1.00;;;;;;6283566;28;20225;-55
2023/01/20 09:14:00;;;;;;;33.27;21.77;;;1.50;1.00;;;;;;6285496;28;20241;-55
2023/01/20 09:17:03;;;;;;;34.77;22.20;;;1.50;1.00;;;;;;6287645;28;20868;-55
2023/01/20 09:20:07;;;;;;;32.67;20.77;;;1.70;1.00;;;;;;6285379;28;20229;-56
2023/01/20 09:23:10;;;;;;;29.83;20.77;;;1.60;1.00;;;;;;6290858;28;20240;-54
2023/01/20 09:26:14;;;;;;;32.07;21.20;;;1.60;1.00;;;;;;6283986;28;20230;-56
2023/01/20 09:29:36;;;;;;;31.00;20.93;;;1.40;1.00;;;;;;6280081;28;20229;-56
2023/01/20 09:32:39;;;;;;;33.43;21.30;;;1.40;1.00;;;;;;6286548;28;20741;-54
2023/01/20 09:35:42;;;;;;;33.47;21.00;;;1.40;1.00;;;;;;6279319;28;20287;-54
2023/01/20 09:45:49;;;;;;;34.37;21.97;;;1.60;1.00;;;;;;6284493;28;20260;-56
2023/01/20 09:55:52;;;;;;;38.23;23.83;;;1.50;1.00;;;;;;6286694;28;20243;-56
2023/01/20 09:59:01;;;;;;;41.40;25.30;;;1.80;1.00;;;;;;6280384;28;20806;-57
2023/01/20 10:02:12;;;;;;;34.20;24.00;;;1.80;1.00;;;;;;6284356;28;20237;-56
2023/01/20 10:05:20;;;;;;;37.03;25.37;;;1.70;1.00;;;;;;6286826;28;20233;-56
2023/01/20 10:08:28;;;;;;;40.57;23.83;;;1.80;1.00;;;;;;6280124;28;20794;-55
2023/01/20 10:11:36;;;;;;;37.00;24.07;;;2.00;1.00;;;;;;6285837;28;20907;-56
2023/01/20 10:14:44;;;;;;;37.73;23.87;;;1.90;1.00;;;;;;6284026;28;20249;-56
2023/01/20 10:17:53;;;;;;;43.37;24.37;;;1.90;1.00;;;;;;6281652;28;20738;-55
2023/01/20 10:21:01;;;;;;;40.10;24.13;;;2.00;1.00;;;;;;6273863;28;20226;-56
2023/01/20 10:24:10;;;;;;;35.37;23.57;;;2.20;1.00;;;;;;6265715;28;20229;-57
2023/01/20 10:27:13;;;;;;;35.97;23.57;;;1.90;1.00;;;;;;6280765;28;20289;-56
2023/01/20 10:30:17;;;;;;;45.60;23.00;;;2.20;1.00;;;;;;6282333;28;20567;-55
2023/01/20 10:33:28;;;;;;;37.77;22.87;;;1.80;1.00;;;;;;6293022;28;20233;-56
2023/01/20 10:36:34;;;;;;;39.27;24.27;;;1.90;1.00;;;;;;6276361;28;20243;-55
2023/01/20 10:39:44;;;;;;;40.13;24.27;;;2.30;1.00;;;;;;6282965;28;20263;-55
2023/01/20 10:42:49;;;;;;;39.17;24.27;;;2.50;1.00;;;;;;6284348;28;20248;-55
2023/01/20 10:46:15;;;;;;;41.50;24.47;;;2.50;1.00;;;;;;6279805;28;20663;-55
2023/01/20 10:49:36;;;;;;;36.97;24.77;;;2.40;1.00;;;;;;6276777;28;20705;-56
2023/01/20 10:52:51;;;;;;;36.53;23.30;;;2.40;1.00;;;;;;6280857;28;20738;-56
2023/01/20 10:56:07;;;;;;;37.20;23.73;;;2.40;1.00;;;;;;6278459;28;20229;-55
2023/01/20 10:59:14;;;;;;;37.77;25.23;;;2.50;1.00;;;;;;6288068;28;20422;-55
2023/01/20 11:02:21;;;;;;;38.03;23.17;;;2.50;1.00;;;;;;6289352;28;20233;-55
2023/01/20 11:05:27;;;;;;;37.70;24.23;;;2.60;1.00;;;;;;6274360;28;20482;-55
2023/01/20 11:08:31;;;;;;;45.10;22.77;;;2.70;1.00;;;;;;6276701;28;20785;-57
2023/01/20 11:11:34;;;;;;;38.00;24.10;;;2.50;1.00;;;;;;6285305;28;20240;-56
2023/01/20 11:14:37;;;;;;;38.13;23.40;;;2.70;1.00;;;;;;6281473;28;20235;-55
2023/01/20 11:17:40;;;;;;;39.03;24.73;;;2.40;1.00;;;;;;6283047;28;20229;-56
2023/01/20 11:20:47;;;;;;;38.33;24.47;;;2.50;1.00;;;;;;6283947;28;20238;-56
2023/01/20 11:23:52;;;;;;;40.37;24.47;;;2.90;1.00;;;;;;6287453;28;20229;-55
2023/01/20 11:27:03;;;;;;;38.53;23.73;;;2.60;1.00;;;;;;6279178;28;20387;-55
2023/01/20 11:30:20;;;;;;;36.30;24.93;;;2.70;1.00;;;;;;6279441;28;20596;-54
2023/01/20 11:33:25;;;;;;;36.70;24.53;;;2.40;1.00;;;;;;6280515;28;20826;-55
2023/01/20 11:36:30;;;;;;;35.93;23.87;;;2.50;1.00;;;;;;6281630;28;20709;-57
2023/01/20 11:39:35;;;;;;;44.43;25.33;;;2.50;1.00;;;;;;6278488;28;20499;-54
2023/01/20 11:42:44;;;;;;;40.13;25.57;;;2.60;1.00;;;;;;6282399;28;20285;-56
2023/01/20 11:45:47;;;;;;;41.57;24.87;;;2.70;1.00;;;;;;6281778;28;20234;-55
2023/01/20 11:49:05;;;;;;;44.93;26.43;;;2.50;1.00;;;;;;6284148;28;20252;-55
2023/01/20 11:52:20;;;;;;;44.30;26.50;;;2.70;1.00;;;;;;6281529;28;20248;-56
2023/01/20 11:55:24;;;;;;;35.63;23.37;;;2.60;1.00;;;;;;6277340;28;20286;-55
2023/01/20 11:58:31;;;;;;;44.30;25.37;;;2.80;1.00;;;;;;6284714;28;20260;-56
2023/01/20 12:01:50;;;;;;;40.20;25.20;;;2.80;1.00;;;;;;6281204;28;20402;-55
2023/01/20 12:05:08;;;;;;;40.73;25.30;;;2.60;1.00;;;;;;6274576;28;21268;-55
2023/01/20 12:08:17;;;;;;;45.77;26.67;;;2.50;1.00;;;;;;6275898;28;20236;-55
2023/01/20 12:11:25;;;;;;;36.70;25.47;;;2.80;1.00;;;;;;6284607;28;20619;-54
2023/01/20 12:14:32;;;;;;;43.17;25.33;;;2.70;1.00;;;;;;6281133;28;20225;-55
2023/01/20 12:17:44;;;;;;;38.17;24.80;;;2.50;1.00;;;;;;6280703;28;20244;-56
2023/01/20 12:20:50;;;;;;;41.73;24.63;;;2.90;1.00;;;;;;6282569;28;20225;-54
2023/01/20 12:24:03;;;;;;;36.93;24.93;;;2.90;1.00;;;;;;6286631;28;20236;-55
2023/01/20 12:27:12;;;;;;;36.17;24.03;;;2.60;1.00;;;;;;6285828;28;20599;-56
2023/01/20 12:30:57;;;;;;;36.87;24.60;;;2.70;1.00;;;;;;6291846;28;20248;-55
2023/01/20 12:34:03;;;;;;;35.53;23.63;;;2.60;1.00;;;;;;6186104;28;20701;-55
2023/01/20 12:37:16;;;;;;;40.53;25.20;;;2.60;1.00;;;;;;6182687;28;20818;-55
2023/01/20 12:40:32;;;;;;;35.83;24.43;;;2.80;1.00;;;;;;6282288;28;20612;-55
2023/01/20 12:43:51;;;;;;;39.53;24.63;;;2.80;1.00;;;;;;6277742;28;20236;-56
2023/01/20 12:47:04;;;;;;;39.03;24.93;;;2.80;1.00;;;;;;6291286;28;20241;-55
2023/01/20 12:50:25;;;;;;;34.00;25.00;;;2.60;1.00;;;;;;6284925;28;20268;-56
2023/01/20 12:53:51;;;;;;;45.03;24.53;;;2.50;1.00;;;;;;6282219;28;20370;-55
2023/01/20 12:57:06;;;;;;;40.70;24.90;;;2.80;1.00;;;;;;6285768;28;20234;-55
2023/01/20 13:00:28;;;;;;;34.23;24.23;;;2.70;1.00;;;;;;6288285;28;20238;-55
2023/01/20 13:03:59;;;;;;;34.83;24.70;;;2.60;1.00;;;;;;6287274;28;20611;-56
2023/01/20 13:07:25;;;;;;;40.53;25.10;;;2.50;1.00;;;;;;6283401;28;20565;-55
2023/01/20 13:10:46;;;;;;;33.50;23.47;;;2.90;1.00;;;;;;6281317;28;20592;-55
2023/01/20 13:14:08;;;;;;;40.30;25.47;;;3.00;1.00;;;;;;6282244;28;20233;-55
2023/01/20 13:17:24;;;;;;;42.23;25.33;;;2.70;1.00;;;;;;6284751;28;20415;-55
2023/01/20 13:20:29;;;;;;;39.07;24.47;;;2.70;1.00;;;;;;6284394;28;20507;-56
2023/01/20 13:23:35;;;;;;;40.77;25.57;;;2.70;1.00;;;;;;6283454;28;20237;-56
2023/01/20 13:26:39;;;;;;;39.17;25.60;;;2.90;1.00;;;;;;6282504;28;20233;-56
2023/01/20 13:29:54;;;;;;;35.70;24.90;;;3.00;1.00;;;;;;6289956;28;20237;-55
2023/01/20 13:33:04;;;;;;;40.63;26.03;;;3.00;1.00;;;;;;6289249;28;20575;-56
2023/01/20 13:36:16;;;;;;;42.67;26.03;;;3.00;1.00;;;;;;6289239;28;20821;-55
2023/01/20 13:39:41;;;;;;;36.93;24.90;;;3.40;1.00;;;;;;6280676;28;20237;-57
2023/01/20 13:42:50;;;;;;;38.43;25.60;;;3.30;1.00;;;;;;6281645;28;20322;-54
2023/01/20 13:46:34;;;;;;;44.93;27.23;;;3.50;1.00;;;;;;6280409;28;20225;-55
2023/01/20 13:49:49;;;;;;;43.03;25.50;;;3.40;1.00;;;;;;6283219;28;20236;-56
2023/01/20 13:53:04;;;;;;;32.80;25.27;;;3.30;1.00;;;;;;6280087;28;20380;-54
2023/01/20 13:56:24;;;;;;;40.17;25.07;;;3.60;1.00;;;;;;6293634;28;20354;-55
2023/01/20 13:59:27;;;;;;;39.67;25.27;;;3.70;1.00;;;;;;6281702;28;20233;-55
2023/01/20 14:02:36;;;;;;;36.93;25.23;;;3.50;1.00;;;;;;6295564;28;20710;-55
2023/01/20 14:05:40;;;;;;;44.53;26.37;;;3.40;1.00;;;;;;6278098;28;20887;-55
2023/01/20 14:08:45;;;;;;;34.87;25.07;;;3.50;1.00;;;;;;6284642;28;20316;-56
2023/01/20 14:11:53;;;;;;;37.00;25.53;;;3.30;1.00;;;;;;6287151;28;20226;-57
2023/01/20 14:14:56;;;;;;;43.80;27.70;;;3.50;1.00;;;;;;6286300;28;20512;-56
2023/01/20 14:18:01;;;;;;;40.53;25.30;;;3.40;1.00;;;;;;6285862;28;20241;-55
2023/01/20 14:21:15;;;;;;;40.63;26.67;;;3.40;1.00;;;;;;6284312;28;20374;-55
2023/01/20 14:24:28;;;;;;;38.20;26.23;;;3.50;1.00;;;;;;6283032;28;20254;-55
2023/01/20 14:27:36;;;;;;;43.13;26.03;;;3.30;1.00;;;;;;6293280;28;20240;-56
2023/01/20 14:30:39;;;;;;;41.67;26.17;;;3.30;1.00;;;;;;6287194;28;20261;-55
2023/01/20 14:33:53;;;;;;;42.57;25.90;;;3.60;1.00;;;;;;6281153;28;20256;-56
2023/01/20 14:36:59;;;;;;;40.63;26.03;;;3.20;1.00;;;;;;6279324;28;20643;-55
2023/01/20 14:40:16;;;;;;;46.17;27.60;;;3.30;1.00;;;;;;6280629;28;20248;-55
2023/01/20 14:43:21;;;;;;;42.60;28.43;;;3.30;1.00;;;;;;6288695;28;20267;-57
2023/01/20 14:46:25;;;;;;;40.73;27.20;;;3.10;1.00;;;;;;6289093;28;20244;-55
2023/01/20 14:49:33;;;;;;;40.27;26.13;;;3.00;1.00;;;;;;6281374;28;20304;-57
2023/01/20 14:52:36;;;;;;;38.67;26.10;;;3.10;1.00;;;;;;6288066;28;20252;-55
2023/01/20 14:55:42;;;;;;;41.63;26.63;;;3.00;1.00;;;;;;6283715;28;20241;-55
2023/01/20 14:58:46;;;;;;;39.27;25.83;;;3.10;1.00;;;;;;6285520;28;20439;-55
2023/01/20 15:01:55;;;;;;;35.03;24.20;;;3.10;1.00;;;;;;6282650;28;20739;-55
2023/01/20 15:05:00;;;;;;;33.27;23.67;;;3.00;1.00;;;;;;6287581;28;20229;-63
2023/01/20 15:08:28;;;;;;;37.63;24.00;;;3.00;1.00;;;;;;6281025;28;20233;-55
2023/01/20 15:11:32;;;;;;;35.73;23.53;;;3.00;1.00;;;;;;6285073;28;20458;-55
2023/01/20 15:14:36;;;;;;;38.93;25.37;;;2.90;1.00;;;;;;6281090;28;20874;-56
2023/01/20 15:17:57;;;;;;;34.97;23.13;;;2.90;1.00;;;;;;6285087;28;20461;-57
2023/01/20 15:21:12;;;;;;;36.40;24.63;;;3.00;1.00;;;;;;6290376;28;20253;-55
2023/01/20 15:24:21;;;;;;;43.03;26.70;;;2.90;1.00;;;;;;6288720;28;20592;-56
2023/01/20 15:27:32;;;;;;;42.57;27.60;;;3.00;1.00;;;;;;6283760;28;20225;-55
2023/01/20 15:30:35;;;;;;;41.53;25.83;;;2.80;1.00;;;;;;6282580;28;20314;-55
2023/01/20 15:33:38;;;;;;;46.50;28.67;;;2.70;1.00;;;;;;6287227;28;20236;-55
2023/01/20 15:36:44;;;;;;;42.77;26.67;;;2.60;1.00;;;;;;6283009;28;20426;-56
2023/01/20 15:39:47;;;;;;;39.03;25.67;;;2.50;1.00;;;;;;6287353;28;20513;-56
2023/01/20 15:42:52;;;;;;;37.27;24.60;;;2.40;1.00;;;;;;6278514;28;20229;-55
2023/01/20 15:45:55;;;;;;;38.33;25.80;;;2.40;1.00;;;;;;6280839;28;20229;-55
2023/01/20 15:48:58;;;;;;;44.17;25.80;;;2.60;1.00;;;;;;6286091;28;20237;-56
2023/01/20 15:52:02;;;;;;;46.80;28.13;;;2.40;1.00;;;;;;6285977;28;20247;-55
2023/01/20 15:55:06;;;;;;;41.80;25.80;;;2.50;1.00;;;;;;6288516;28;20363;-55
2023/01/20 15:58:21;;;;;;;43.47;26.93;;;2.60;1.00;;;;;;6279871;28;20256;-55
2023/01/20 16:01:27;;;;;;;40.77;25.63;;;2.20;1.00;;;;;;6286794;28;20221;-55
2023/01/20 16:04:30;;;;;;;46.90;27.27;;;2.40;1.00;;;;;;6286062;28;20271;-55
2023/01/20 16:07:35;;;;;;;47.23;29.13;;;2.30;1.00;;;;;;6275627;28;20718;-55
2023/01/20 16:10:38;;;;;;;43.93;27.00;;;2.30;1.00;;;;;;6286916;28;20911;-55
2023/01/20 16:13:42;;;;;;;44.57;26.43;;;2.20;1.00;;;;;;6282856;28;20479;-56
2023/01/20 16:16:45;;;;;;;42.40;25.70;;;2.20;1.00;;;;;;6285185;28;20713;-56
2023/01/20 16:19:48;;;;;;;40.70;26.30;;;2.50;1.00;;;;;;6287423;28;20800;-55
2023/01/20 16:22:53;;;;;;;44.77;27.67;;;2.30;1.00;;;;;;6277192;28;20230;-56
2023/01/20 16:25:56;;;;;;;42.90;28.07;;;2.50;1.00;;;;;;6280319;28;20233;-56
2023/01/20 16:28:59;;;;;;;40.00;27.07;;;2.30;1.00;;;;;;6291923;28;20720;-55